METAR Data
IDs: Format: Raw Decoded Include TAF

Data at: 2215 UTC 02 Aug 2021

ZBHH 022200Z 04003MPS 9999 -RA BKN040 20/14 Q1009 NOSIG